createdAt,value
2017-09-24T00:06:30.333Z,15.07
2017-09-24T00:08:58.649Z,14.80
2017-09-24T00:17:49.827Z,17.00
2017-09-24T00:20:18.211Z,16.03
2017-09-24T00:22:46.511Z,13.93
2017-09-24T00:25:41.287Z,17.73
2017-09-24T00:28:39.875Z,19.60
2017-09-24T00:31:08.241Z,16.23
2017-09-24T00:33:36.792Z,16.83
2017-09-24T00:36:05.059Z,15.07
2017-09-24T00:38:33.410Z,16.53
2017-09-24T00:47:03.658Z,16.20
2017-09-24T00:49:32.034Z,16.10
2017-09-24T00:58:02.368Z,14.20
2017-09-24T01:00:30.931Z,18.13
2017-09-24T01:03:00.625Z,15.80
2017-09-24T01:05:31.686Z,13.37
2017-09-24T01:11:21.235Z,15.53
2017-09-24T01:13:49.869Z,21.70
2017-09-24T01:22:40.436Z,16.20
2017-09-24T01:25:08.724Z,26.17
2017-09-24T01:27:36.980Z,17.60
2017-09-24T01:30:05.447Z,23.50
2017-09-24T01:32:33.962Z,16.20
2017-09-24T01:35:02.251Z,19.13
2017-09-24T01:37:41.994Z,22.40
2017-09-24T01:40:11.162Z,32.10
2017-09-24T01:42:39.458Z,23.07
2017-09-24T01:45:08.062Z,147.43
2017-09-24T01:47:37.264Z,24.23
2017-09-24T02:11:39.378Z,21.80
2017-09-24T02:14:07.748Z,20.10
2017-09-24T02:16:36.012Z,25.37
2017-09-24T02:25:06.553Z,12.50
2017-09-24T02:27:34.833Z,17.47
2017-09-24T02:30:03.097Z,16.23
2017-09-24T02:32:41.368Z,16.00
2017-09-24T02:35:09.784Z,18.20
2017-09-24T02:37:38.171Z,17.80
2017-09-24T02:40:07.493Z,19.60
2017-09-24T02:42:37.228Z,25.47
2017-09-24T02:48:06.202Z,16.50
2017-09-24T02:50:35.308Z,33.63
2017-09-24T02:53:05.278Z,38.97
2017-09-24T02:55:34.220Z,65.10
2017-09-24T02:58:03.488Z,18.80
2017-09-24T03:03:33.376Z,17.17
2017-09-24T03:06:01.671Z,16.00
2017-09-24T03:08:30.103Z,25.23
2017-09-24T03:10:59.309Z,15.10
2017-09-24T03:19:29.355Z,19.77
2017-09-24T03:21:57.641Z,16.43
2017-09-24T03:24:27.290Z,13.60
2017-09-24T03:29:57.073Z,16.47
2017-09-24T03:32:27.864Z,12.60
2017-09-24T03:34:56.151Z,14.77
2017-09-24T03:37:24.509Z,15.77
2017-09-24T03:39:52.908Z,22.30
2017-09-24T03:42:21.212Z,19.10
2017-09-24T03:44:49.567Z,137.73
2017-09-24T03:47:18.728Z,243.10
2017-09-24T03:49:47.342Z,250.60
2017-09-24T03:52:15.788Z,74.83
2017-09-24T03:54:44.178Z,48.03
2017-09-24T03:57:15.179Z,99.97
2017-09-24T03:59:44.316Z,65.23
2017-09-24T04:02:14.322Z,68.27
2017-09-24T04:04:43.448Z,44.60
2017-09-24T04:07:11.678Z,104.87
2017-09-24T04:18:40.652Z,18.50
2017-09-24T04:21:09.114Z,52.57
2017-09-24T04:32:40.834Z,65.47
2017-09-24T04:35:09.084Z,64.40
2017-09-24T04:46:42.765Z,17.17
2017-09-24T04:49:11.760Z,21.93
2017-09-24T04:51:41.723Z,31.63
2017-09-24T04:54:11.560Z,36.30
2017-09-24T04:56:40.193Z,32.70
2017-09-24T04:59:08.885Z,45.60
2017-09-24T05:01:38.120Z,36.70
2017-09-24T05:04:07.394Z,35.60
2017-09-24T05:09:42.158Z,18.07
2017-09-24T05:12:11.236Z,37.33
2017-09-24T05:14:42.355Z,46.60
2017-09-24T05:17:13.951Z,24.70
2017-09-24T05:25:43.896Z,28.83
2017-09-24T05:28:12.247Z,21.57
2017-09-24T05:30:40.515Z,19.47
2017-09-24T05:33:08.826Z,14.70
2017-09-24T05:41:37.446Z,12.30
2017-09-24T05:44:06.080Z,11.70
2017-09-24T05:46:34.374Z,12.07
2017-09-24T05:49:19.556Z,18.67
2017-09-24T05:51:49.904Z,14.57
2017-09-24T05:54:19.020Z,13.43
2017-09-24T05:56:48.145Z,12.30
2017-09-24T05:59:16.657Z,19.20
2017-09-24T06:01:45.017Z,15.93
2017-09-24T06:04:13.380Z,16.57
2017-09-24T06:06:41.686Z,15.13
2017-09-24T06:09:10.044Z,11.27
2017-09-24T06:11:41.464Z,19.83
2017-09-24T06:14:11.075Z,11.17
2017-09-24T06:16:41.259Z,24.83
2017-09-24T06:19:09.624Z,24.60
2017-09-24T06:21:38.127Z,20.27
2017-09-24T06:24:06.506Z,18.67
2017-09-24T06:26:35.628Z,23.73
2017-09-24T06:29:04.052Z,23.83
2017-09-24T06:31:32.516Z,25.77
2017-09-24T06:34:00.768Z,23.53
2017-09-24T06:36:29.036Z,17.40
2017-09-24T06:38:58.369Z,22.40
2017-09-24T06:41:26.786Z,13.47
2017-09-24T06:50:14.922Z,17.20
2017-09-24T06:52:43.432Z,12.17
2017-09-24T06:58:21.150Z,21.30
2017-09-24T07:21:54.077Z,21.50
2017-09-24T07:30:23.858Z,25.57
2017-09-24T07:32:52.159Z,20.53
2017-09-24T07:35:20.447Z,19.83
2017-09-24T07:56:20.668Z,20.27
2017-09-24T08:19:54.814Z,18.70
2017-09-24T08:22:42.892Z,21.80
2017-09-24T08:31:12.471Z,16.80
2017-09-24T08:33:41.249Z,17.50
2017-09-24T08:42:10.696Z,17.83
2017-09-24T08:47:41.160Z,18.23
2017-09-24T08:50:10.265Z,15.33
2017-09-24T08:52:42.413Z,16.10
2017-09-24T08:55:40.751Z,17.17
2017-09-24T08:58:09.068Z,17.67
2017-09-24T09:06:42.814Z,13.73
2017-09-24T09:15:40.151Z,16.00
2017-09-24T09:24:10.533Z,13.13
2017-09-24T09:40:41.093Z,30.93
2017-09-24T09:46:39.647Z,29.53
2017-09-24T09:49:07.896Z,18.90
2017-09-24T09:51:42.395Z,15.63
2017-09-24T09:54:11.466Z,12.13
2017-09-24T09:56:40.568Z,13.57
2017-09-24T10:02:09.709Z,13.33
2017-09-24T10:04:38.768Z,14.60
2017-09-24T10:07:24.686Z,12.50
2017-09-24T10:10:11.237Z,11.27
2017-09-24T10:12:42.932Z,14.90
2017-09-24T10:15:41.258Z,14.00
2017-09-24T10:24:10.876Z,13.27
2017-09-24T10:32:38.971Z,12.47
2017-09-24T10:35:07.999Z,12.87
2017-09-24T10:37:36.271Z,11.43
2017-09-24T10:43:04.879Z,13.47
2017-09-24T10:45:33.199Z,12.57
2017-09-24T10:48:01.887Z,15.10
2017-09-24T10:50:31.125Z,14.13
2017-09-24T10:52:59.393Z,13.73
2017-09-24T10:58:28.009Z,13.40
2017-09-24T11:00:56.298Z,15.00
2017-09-24T11:03:24.631Z,15.27
2017-09-24T11:05:53.730Z,13.00
2017-09-24T11:14:25.625Z,14.03
2017-09-24T11:16:54.832Z,12.40
2017-09-24T11:19:24.028Z,13.57
2017-09-24T11:33:54.766Z,13.57
2017-09-24T11:39:42.976Z,14.03
2017-09-24T11:42:11.277Z,14.70
2017-09-24T11:44:39.604Z,13.80
2017-09-24T11:47:07.899Z,12.30
2017-09-24T11:55:37.350Z,12.97
2017-09-24T11:58:05.623Z,12.23
2017-09-24T12:00:33.931Z,14.23
2017-09-24T12:20:41.944Z,13.80
2017-09-24T12:23:10.983Z,14.53
2017-09-24T12:25:39.325Z,13.17
2017-09-24T12:28:08.609Z,12.07
2017-09-24T12:30:38.158Z,13.17
2017-09-24T12:33:06.455Z,14.60
2017-09-24T12:35:41.313Z,13.87
2017-09-24T12:38:10.385Z,12.67
2017-09-24T12:49:42.065Z,12.60
2017-09-24T12:52:10.392Z,11.67
2017-09-24T12:54:38.754Z,12.13
2017-09-24T12:57:07.104Z,14.03
2017-09-24T12:59:35.433Z,14.10
2017-09-24T13:08:04.580Z,13.07
2017-09-24T13:10:33.627Z,13.50
2017-09-24T13:20:32.327Z,14.97
2017-09-24T13:23:00.664Z,13.90
2017-09-24T13:25:29.013Z,14.53
2017-09-24T13:27:57.451Z,13.43
2017-09-24T13:30:26.521Z,12.93
2017-09-24T13:32:54.899Z,13.53
2017-09-24T13:35:24.068Z,14.03
2017-09-24T13:37:52.595Z,14.20
2017-09-24T13:40:21.624Z,13.87
2017-09-24T13:51:51.852Z,16.53
2017-09-24T13:54:21.011Z,15.57
2017-09-24T14:57:05.778Z,17.17
2017-09-24T15:02:34.239Z,17.03
2017-09-24T15:05:03.341Z,16.93
2017-09-24T15:19:34.071Z,17.70
2017-09-24T15:34:04.796Z,16.90
2017-09-24T15:36:41.204Z,17.63
2017-09-24T15:48:40.251Z,19.63
2017-09-24T15:51:09.260Z,17.40
2017-09-24T15:53:44.200Z,16.40
2017-09-24T15:56:12.456Z,19.47
2017-09-24T16:16:42.435Z,16.83
2017-09-24T16:19:40.669Z,16.60
2017-09-24T16:43:40.478Z,15.80
2017-09-24T17:01:41.532Z,13.90
2017-09-24T17:22:13.104Z,20.13
2017-09-24T17:24:41.683Z,14.57
2017-09-24T17:27:10.119Z,17.50
2017-09-24T17:53:43.137Z,13.90
2017-09-24T17:59:41.632Z,21.17
2017-09-24T18:02:10.693Z,37.80
2017-09-24T18:04:39.009Z,22.43
2017-09-24T18:07:08.225Z,38.77
2017-09-24T18:12:43.219Z,41.93
2017-09-24T18:15:11.495Z,39.93
2017-09-24T18:17:40.458Z,37.90
2017-09-24T18:20:08.766Z,39.63
2017-09-24T18:22:37.301Z,35.67
2017-09-24T18:25:05.566Z,40.63
2017-09-24T18:27:34.017Z,37.30
2017-09-24T18:30:02.301Z,18.33
2017-09-24T18:32:31.337Z,24.37
2017-09-24T18:34:59.629Z,24.10
2017-09-24T18:37:27.895Z,29.70
2017-09-24T18:42:57.662Z,32.53
2017-09-24T18:45:26.745Z,27.60
2017-09-24T18:47:54.987Z,30.93
2017-09-24T18:50:24.007Z,21.10
2017-09-24T18:55:52.906Z,31.37
2017-09-24T18:58:21.232Z,22.90
2017-09-24T19:00:49.619Z,30.97
2017-09-24T19:03:17.906Z,30.93
2017-09-24T19:11:48.178Z,35.43
2017-09-24T19:14:16.440Z,35.30
2017-09-24T19:16:44.756Z,39.03
2017-09-24T19:30:19.005Z,31.33
2017-09-24T19:32:47.312Z,25.10
2017-09-24T19:35:41.503Z,25.63
2017-09-24T19:44:11.231Z,25.57
2017-09-24T19:46:39.492Z,24.87
2017-09-24T19:49:07.761Z,23.47
2017-09-24T19:54:42.451Z,21.57
2017-09-24T19:57:10.720Z,26.00
2017-09-24T19:59:39.123Z,24.13
2017-09-24T20:02:07.503Z,22.00
2017-09-24T20:10:42.805Z,24.27
2017-09-24T20:13:11.808Z,25.13
2017-09-24T20:15:43.226Z,23.60
2017-09-24T20:18:11.519Z,25.40
2017-09-24T20:20:40.549Z,24.33
2017-09-24T20:23:08.882Z,23.63
2017-09-24T20:25:37.910Z,22.33
2017-09-24T20:28:06.254Z,22.90
2017-09-24T21:15:43.172Z,20.73
2017-09-24T21:18:12.261Z,22.67
2017-09-24T21:20:40.762Z,26.20
2017-09-24T21:23:09.477Z,25.13
2017-09-24T21:28:38.700Z,21.67
2017-09-24T21:31:07.706Z,18.63
2017-09-24T21:33:36.760Z,17.03
2017-09-24T21:36:05.314Z,15.87
2017-09-24T21:44:34.380Z,18.27
2017-09-24T21:47:03.286Z,20.23
2017-09-24T21:49:31.542Z,18.53
2017-09-24T22:01:00.836Z,16.20
2017-09-24T22:03:29.830Z,19.13
2017-09-24T22:15:00.413Z,20.47
2017-09-24T22:17:29.465Z,15.90
2017-09-24T22:41:03.697Z,16.13
2017-09-24T22:43:31.960Z,16.53
2017-09-24T22:46:00.235Z,18.50
2017-09-24T22:51:29.357Z,15.07
2017-09-24T22:53:57.613Z,15.37
2017-09-24T22:56:25.868Z,14.10
2017-09-24T22:58:54.997Z,16.40
2017-09-24T23:04:43.363Z,16.07
2017-09-24T23:07:11.653Z,14.67
2017-09-24T23:09:40.741Z,18.00
2017-09-24T23:12:09.062Z,14.63
2017-09-24T23:14:37.315Z,14.33
2017-09-24T23:20:05.634Z,15.67
2017-09-24T23:22:34.738Z,17.90
2017-09-24T23:25:03.767Z,17.87
2017-09-24T23:27:32.096Z,16.30
2017-09-24T23:33:01.123Z,13.20
2017-09-24T23:35:30.135Z,14.97
2017-09-24T23:37:59.139Z,16.00
2017-09-24T23:40:27.454Z,15.10
2017-09-24T23:45:55.866Z,16.30
2017-09-24T23:48:43.492Z,13.00
2017-09-24T23:51:11.770Z,14.50
2017-09-24T23:53:40.003Z,15.50
